Star Princess — ZCDD6 — position and weather

sailwx.info

Track history (hours):
 
Tides and Currents Weather Stations Pressure Air Temp Water Temp Dewpoint Dewpoint Depression Visibility Wind Speed Wind Dir Waves Ship Positions

Star Princess

Operator: Princess Cruises

Last reported at 2015-May-22 00:28 UTC. Time now 2015-May-23 04:09 UTC.
Position N 58°19' W 136°15'.

Length 289.6 m; beam 36 m; draft 8.4 m.

Type: Ship. MMSI: 310361000.

Date/timePositionNaut miles runAvg speedWind from/ knotsBaromVisibWave heightAir tempDewpointWater temp
2015-May-22 00:28N 58°19' W 136°15'1112.4
2015-May-21 23:33N 58°27' W 136°00'1616.1
2015-May-21 22:33N 58°42' W 136°13'17 2.7
2015-May-21 16:24N 58°52' W 136°38'1416.9
2015-May-21 15:33N 58°44' W 136°16'1716.6
2015-May-21 14:33N 58°28' W 136°03'1010.2
2015-May-21 13:33N 58°19' W 135°55'1211.7
2015-May-21 12:33N 58°16' W 135°33'  
2015-May-17 19:33N 51°08' W 128°08'1616.6
2015-May-17 18:33N 50°59' W 127°46'3417.0
2015-May-17 16:32N 50°42' W 126°59'1615.5
2015-May-17 15:32N 50°32' W 126°41'7414.2
2015-May-17 10:20N 49°53' W 125°03'1316.1
2015-May-17 09:33N 49°44' W 124°49'1615.7
2015-May-17 08:31N 49°32' W 124°32'1515.3
2015-May-17 07:33N 49°24' W 124°13'1616.4
2015-May-17 06:33N 49°20' W 123°49'1616.4
2015-May-17 05:33N 49°19' W 123°24'1111.3
2015-May-17 04:33N 49°17' W 123°07'0 0.2
2015-May-17 03:33N 49°17' W 123°07'0 0.0
2015-May-17 02:33N 49°17' W 123°07'0 0.0
2015-May-17 01:33N 49°17' W 123°07'0 0.0
2015-May-17 00:32N 49°17' W 123°07'0 0.0
2015-May-16 23:32N 49°17' W 123°07'0 0.0
2015-May-16 22:31N 49°17' W 123°07'0 0.0
2015-May-16 21:31N 49°17' W 123°07'0 0.0
2015-May-16 20:34N 49°17' W 123°07'6 5.8
2015-May-16 19:33N 49°18' W 123°16'1717.0
2015-May-16 18:34N 49°01' W 123°16'1817.7
2015-May-16 17:34N 48°46' W 123°02'1312.6
2015-May-16 16:34N 48°36' W 123°13'1414.2
2015-May-16 15:34N 48°22' W 123°18'1313.3
2015-May-16 14:33N 48°13' W 123°33'1818.2
2015-May-16 13:33N 48°15' W 124°00'1918.9
2015-May-16 12:33N 48°23' W 124°26'1918.7
2015-May-16 11:34N 48°29' W 124°53'2019.6
2015-May-16 10:34N 48°13' W 125°10'2221.4
2015-May-16 09:33N 47°53' W 125°23'7021.5
2015-May-16 06:17N 46°43' W 125°18'1621.8
2015-May-16 05:33N 46°27' W 125°16'2221.7
2015-May-16 04:33N 46°06' W 125°15'2221.8
2015-May-16 03:33N 45°44' W 125°13'42121.1
2015-May-15 07:34N 38°47' W 123°57'2120.6
2015-May-15 06:34N 38°30' W 123°41'2120.5
2015-May-15 05:33N 38°14' W 123°25'2120.9
2015-May-15 04:34N 37°58' W 123°07'2020.4
2015-May-15 03:34N 37°48' W 122°45'1313.1
2015-May-15 02:33N 37°49' W 122°28'4 3.4
2015-May-15 01:30N 37°48' W 122°24'0 0.0
2015-May-15 00:29N 37°48' W 122°24'0 0.0
2015-May-14 23:28N 37°48' W 122°24'0 0.0
2015-May-14 22:28N 37°48' W 122°24'0 0.0
2015-May-14 21:28N 37°48' W 122°24'0 0.0
2015-May-14 20:33N 37°48' W 122°24'0 0.0
2015-May-14 19:33N 37°48' W 122°24'0 0.0
2015-May-14 18:32N 37°48' W 122°24'0 0.0
2015-May-14 17:29N 37°48' W 122°24'0 0.0
2015-May-14 16:25N 37°48' W 122°24'0 0.0
2015-May-14 15:31N 37°48' W 122°24'0 0.0
2015-May-14 14:31N 37°48' W 122°24'0 0.1
2015-May-14 13:33N 37°48' W 122°24'8 7.9
2015-May-14 12:33N 37°47' W 122°34'1111.0
2015-May-14 11:33N 37°37' W 122°40'1615.7
2015-May-14 10:34N 37°22' W 122°40'1515.2
2015-May-14 09:33N 37°08' W 122°48'1615.4
2015-May-14 08:30N 36°52' W 122°51'1515.0
2015-May-14 07:29N 36°36' W 122°48'1415.0
2015-May-14 06:33N 36°23' W 122°44'1615.7
2015-May-14 05:33N 36°10' W 122°33'1615.9
2015-May-14 04:34N 35°56' W 122°23'1615.8
2015-May-14 03:33N 35°43' W 122°12'1615.7
2015-May-14 02:33N 35°30' W 122°01'1615.7
2015-May-14 01:33N 35°17' W 121°51'1615.8
2015-May-14 00:32N 35°03' W 121°40'26916.6
2015-May-13 08:19N 31°58' W 117°46'1817.4
2015-May-13 07:17N 31°45' W 117°32'3512.8
2015-May-13 04:33N 31°45' W 116°51'2 0.2
2015-May-12 21:18N 31°46' W 116°49'1816.2
2015-May-12 20:09N 31°38' W 117°09'4316.2
2015-May-12 17:32N 31°20' W 117°54'1716.5
2015-May-12 16:31N 31°13' W 118°12'1616.5
2015-May-12 15:33N 31°07' W 118°29'1816.5
2015-May-12 14:28N 31°01' W 118°49'  
Track history (hours):
 
Tides and Currents Weather Stations Pressure Air Temp Water Temp Dewpoint Dewpoint Depression Visibility Wind Speed Wind Dir Waves Ship Positions

Star Princess

Operator: Princess Cruises

Last reported at 2015-May-22 00:28 UTC. Time now 2015-May-23 04:09 UTC.
Position N 58°19' W 136°15'.

Length 289.6 m; beam 36 m; draft 8.4 m.

Type: Ship. MMSI: 310361000.

Date/timePositionNaut miles runAvg speedWind from/ knotsBaromVisibWave heightAir tempDewpointWater temp
2015-May-22 00:28N 58°19' W 136°15'1112.4
2015-May-21 23:33N 58°27' W 136°00'1616.1
2015-May-21 22:33N 58°42' W 136°13'17 2.7
2015-May-21 16:24N 58°52' W 136°38'1416.9
2015-May-21 15:33N 58°44' W 136°16'1716.6
2015-May-21 14:33N 58°28' W 136°03'1010.2
2015-May-21 13:33N 58°19' W 135°55'1211.7
2015-May-21 12:33N 58°16' W 135°33'  
2015-May-17 19:33N 51°08' W 128°08'1616.6
2015-May-17 18:33N 50°59' W 127°46'3417.0
2015-May-17 16:32N 50°42' W 126°59'1615.5
2015-May-17 15:32N 50°32' W 126°41'7414.2
2015-May-17 10:20N 49°53' W 125°03'1316.1
2015-May-17 09:33N 49°44' W 124°49'1615.7
2015-May-17 08:31N 49°32' W 124°32'1515.3
2015-May-17 07:33N 49°24' W 124°13'1616.4
2015-May-17 06:33N 49°20' W 123°49'1616.4
2015-May-17 05:33N 49°19' W 123°24'1111.3
2015-May-17 04:33N 49°17' W 123°07'0 0.2
2015-May-17 03:33N 49°17' W 123°07'0 0.0
2015-May-17 02:33N 49°17' W 123°07'0 0.0
2015-May-17 01:33N 49°17' W 123°07'0 0.0
2015-May-17 00:32N 49°17' W 123°07'0 0.0
2015-May-16 23:32N 49°17' W 123°07'0 0.0
2015-May-16 22:31N 49°17' W 123°07'0 0.0
2015-May-16 21:31N 49°17' W 123°07'0 0.0
2015-May-16 20:34N 49°17' W 123°07'6 5.8
2015-May-16 19:33N 49°18' W 123°16'1717.0
2015-May-16 18:34N 49°01' W 123°16'1817.7
2015-May-16 17:34N 48°46' W 123°02'1312.6
2015-May-16 16:34N 48°36' W 123°13'1414.2
2015-May-16 15:34N 48°22' W 123°18'1313.3
2015-May-16 14:33N 48°13' W 123°33'1818.2
2015-May-16 13:33N 48°15' W 124°00'1918.9
2015-May-16 12:33N 48°23' W 124°26'1918.7
2015-May-16 11:34N 48°29' W 124°53'2019.6
2015-May-16 10:34N 48°13' W 125°10'2221.4
2015-May-16 09:33N 47°53' W 125°23'7021.5
2015-May-16 06:17N 46°43' W 125°18'1621.8
2015-May-16 05:33N 46°27' W 125°16'2221.7
2015-May-16 04:33N 46°06' W 125°15'2221.8
2015-May-16 03:33N 45°44' W 125°13'42121.1
2015-May-15 07:34N 38°47' W 123°57'2120.6
2015-May-15 06:34N 38°30' W 123°41'2120.5
2015-May-15 05:33N 38°14' W 123°25'2120.9
2015-May-15 04:34N 37°58' W 123°07'2020.4
2015-May-15 03:34N 37°48' W 122°45'1313.1
2015-May-15 02:33N 37°49' W 122°28'4 3.4
2015-May-15 01:30N 37°48' W 122°24'0 0.0
2015-May-15 00:29N 37°48' W 122°24'0 0.0
2015-May-14 23:28N 37°48' W 122°24'0 0.0
2015-May-14 22:28N 37°48' W 122°24'0 0.0
2015-May-14 21:28N 37°48' W 122°24'0 0.0
2015-May-14 20:33N 37°48' W 122°24'0 0.0
2015-May-14 19:33N 37°48' W 122°24'0 0.0
2015-May-14 18:32N 37°48' W 122°24'0 0.0
2015-May-14 17:29N 37°48' W 122°24'0 0.0
2015-May-14 16:25N 37°48' W 122°24'0 0.0
2015-May-14 15:31N 37°48' W 122°24'0 0.0
2015-May-14 14:31N 37°48' W 122°24'0 0.1
2015-May-14 13:33N 37°48' W 122°24'8 7.9
2015-May-14 12:33N 37°47' W 122°34'1111.0
2015-May-14 11:33N 37°37' W 122°40'1615.7
2015-May-14 10:34N 37°22' W 122°40'1515.2
2015-May-14 09:33N 37°08' W 122°48'1615.4
2015-May-14 08:30N 36°52' W 122°51'1515.0
2015-May-14 07:29N 36°36' W 122°48'1415.0
2015-May-14 06:33N 36°23' W 122°44'1615.7
2015-May-14 05:33N 36°10' W 122°33'1615.9
2015-May-14 04:34N 35°56' W 122°23'1615.8
2015-May-14 03:33N 35°43' W 122°12'1615.7
2015-May-14 02:33N 35°30' W 122°01'1615.7
2015-May-14 01:33N 35°17' W 121°51'1615.8
2015-May-14 00:32N 35°03' W 121°40'26916.6
2015-May-13 08:19N 31°58' W 117°46'1817.4
2015-May-13 07:17N 31°45' W 117°32'3512.8
2015-May-13 04:33N 31°45' W 116°51'2 0.2
2015-May-12 21:18N 31°46' W 116°49'1816.2
2015-May-12 20:09N 31°38' W 117°09'4316.2
2015-May-12 17:32N 31°20' W 117°54'1716.5
2015-May-12 16:31N 31°13' W 118°12'1616.5
2015-May-12 15:33N 31°07' W 118°29'1816.5
2015-May-12 14:28N 31°01' W 118°49'  

Dump ship's entire track history